createdAt,value
2022-12-25T00:02:02.483Z,16.468
2022-12-25T00:17:04.420Z,16.305
2022-12-25T00:32:06.389Z,16.822
2022-12-25T00:47:08.405Z,16.588
2022-12-25T01:02:10.521Z,16.473
2022-12-25T01:17:12.614Z,16.612
2022-12-25T01:32:14.593Z,16.634
2022-12-25T01:47:16.563Z,16.577
2022-12-25T02:02:18.627Z,15.708
2022-12-25T02:17:20.714Z,15.973
2022-12-25T02:32:22.735Z,16.01
2022-12-25T02:47:24.672Z,15.015
2022-12-25T03:02:26.618Z,15.431
2022-12-25T03:17:28.571Z,15.009
2022-12-25T03:32:30.524Z,15.127
2022-12-25T03:47:32.456Z,15.534
2022-12-25T04:02:34.597Z,14.358
2022-12-25T04:17:36.630Z,14.447
2022-12-25T04:32:38.613Z,15.042
2022-12-25T04:47:40.521Z,15.072
2022-12-25T05:02:42.650Z,15.544
2022-12-25T05:17:44.781Z,15.529
2022-12-25T05:32:46.670Z,15.506
2022-12-25T05:47:48.583Z,15.567
2022-12-25T06:02:50.707Z,15.617
2022-12-25T06:17:52.819Z,15.537
2022-12-25T06:32:54.740Z,15.63
2022-12-25T06:47:56.881Z,15.732
2022-12-25T07:02:58.974Z,15.813
2022-12-25T07:18:01.326Z,15.21
2022-12-25T07:33:03.266Z,17.403
2022-12-25T07:48:06.299Z,14.799
2022-12-25T08:03:10.410Z,15.561
2022-12-25T08:18:12.476Z,13.832
2022-12-25T08:33:14.382Z,15.281
2022-12-25T08:48:16.354Z,15.299
2022-12-25T09:03:18.451Z,15.382
2022-12-25T09:18:20.485Z,15.379
2022-12-25T09:33:22.463Z,15.316
2022-12-25T09:48:24.346Z,15.53
2022-12-25T10:03:26.428Z,15.403
2022-12-25T10:18:28.478Z,15.472
2022-12-25T10:33:30.526Z,13.82
2022-12-25T10:48:32.428Z,15.794
2022-12-25T11:03:34.628Z,15.753
2022-12-25T11:18:36.648Z,15.536
2022-12-25T11:33:38.577Z,15.557
2022-12-25T11:48:40.520Z,14.395
2022-12-25T12:03:42.574Z,14.03
2022-12-25T12:18:50.049Z,15.047
2022-12-25T12:33:52.629Z,14.091
2022-12-25T12:48:54.606Z,14.094
2022-12-25T13:03:56.443Z,14.036
2022-12-25T13:18:58.296Z,14.293
2022-12-25T13:34:00.156Z,14.963
2022-12-25T13:49:02.008Z,14.246
2022-12-25T14:04:03.882Z,14.675
2022-12-25T14:19:05.717Z,14.975
2022-12-25T14:34:07.531Z,15.015
2022-12-25T14:49:09.381Z,15.998
2022-12-25T15:04:11.291Z,15.26
2022-12-25T15:19:13.153Z,15.326
2022-12-25T15:34:15.012Z,16.165
2022-12-25T15:49:17.168Z,15.496
2022-12-25T16:04:19.076Z,15.549
2022-12-25T16:19:20.955Z,15.626
2022-12-25T16:34:22.800Z,15.961
2022-12-25T16:49:24.863Z,16.499
2022-12-25T17:04:26.942Z,15.754
2022-12-25T17:19:28.885Z,15.985
2022-12-25T17:34:30.879Z,16.886
2022-12-25T17:49:32.826Z,16.802
2022-12-25T18:04:34.739Z,16.609
2022-12-25T18:19:36.662Z,17.072
2022-12-25T18:34:38.669Z,16.269
2022-12-25T18:49:40.569Z,17.549
2022-12-25T19:04:42.471Z,17.595
2022-12-25T19:19:44.363Z,16.566
2022-12-25T19:34:46.295Z,16.212
2022-12-25T19:49:52.844Z,17.109
2022-12-25T20:04:55.252Z,15.879
2022-12-25T20:19:57.222Z,17.016
2022-12-25T20:34:59.105Z,16.984
2022-12-25T20:50:01.133Z,16.924
2022-12-25T21:05:03.018Z,16.605
2022-12-25T21:20:05.060Z,16.474
2022-12-25T21:35:07.003Z,16.272
2022-12-25T21:50:08.944Z,15.229
2022-12-25T22:05:10.858Z,16.324
2022-12-25T22:20:12.820Z,16.02
2022-12-25T22:35:14.790Z,15.931
2022-12-25T22:50:16.760Z,15.307
2022-12-25T23:05:18.765Z,15.557
2022-12-25T23:20:20.695Z,15.708
2022-12-25T23:35:22.594Z,15.163
2022-12-25T23:50:24.528Z,15.559
